createdAt,value
2018-03-25T00:00:29.347Z,99265.39
2018-03-25T00:01:35.072Z,99267.96
2018-03-25T00:02:40.814Z,99262.80
2018-03-25T00:03:47.400Z,99267.53
2018-03-25T00:04:53.147Z,99265.39
2018-03-25T00:05:58.926Z,99262.80
2018-03-25T00:07:04.647Z,99260.66
2018-03-25T00:08:10.555Z,99261.13
2018-03-25T00:09:16.306Z,99256.94
2018-03-25T00:10:22.012Z,99258.74
2018-03-25T00:11:27.721Z,99254.09
2018-03-25T00:12:33.449Z,99256.69
2018-03-25T00:13:39.282Z,99252.31
2018-03-25T00:14:45.169Z,99257.02
2018-03-25T00:15:50.961Z,99258.72
2018-03-25T00:16:56.680Z,99262.19
2018-03-25T00:18:03.158Z,99266.98
2018-03-25T00:19:08.848Z,99264.06
2018-03-25T00:20:15.429Z,99264.54
2018-03-25T00:21:21.942Z,99261.58
2018-03-25T00:22:27.648Z,99260.76
2018-03-25T00:23:33.376Z,99262.55
2018-03-25T00:24:39.908Z,99263.02
2018-03-25T00:25:45.645Z,99259.16
2018-03-25T00:26:51.362Z,99261.78
2018-03-25T00:27:57.229Z,99264.38
2018-03-25T00:29:02.947Z,99257.47
2018-03-25T00:30:08.697Z,99260.55
2018-03-25T00:31:14.423Z,99264.44
2018-03-25T00:32:20.130Z,99262.30
2018-03-25T00:33:26.663Z,99259.76
2018-03-25T00:34:32.373Z,99265.44
2018-03-25T00:35:37.526Z,99260.76
2018-03-25T00:36:43.260Z,99266.34
2018-03-25T00:37:49.055Z,99271.80
2018-03-25T00:38:54.748Z,99267.97
2018-03-25T00:40:01.222Z,99270.35
2018-03-25T00:41:07.699Z,99269.70
2018-03-25T00:42:14.213Z,99265.00
2018-03-25T00:43:19.586Z,99264.18
2018-03-25T00:44:26.092Z,99263.78
2018-03-25T00:45:31.984Z,99267.67
2018-03-25T00:46:38.506Z,99264.69
2018-03-25T00:47:44.375Z,99259.56
2018-03-25T00:48:51.033Z,99263.93
2018-03-25T00:49:56.836Z,99261.76
2018-03-25T00:51:02.688Z,99256.17
2018-03-25T00:52:08.401Z,99266.12
2018-03-25T00:53:14.120Z,99264.41
2018-03-25T00:54:20.629Z,99255.87
2018-03-25T00:55:26.345Z,99257.62
2018-03-25T00:56:32.085Z,99264.53
2018-03-25T00:57:37.805Z,99264.13
2018-03-25T00:58:44.111Z,99259.42
2018-03-25T00:59:49.822Z,99263.80
2018-03-25T01:00:56.452Z,99264.73
2018-03-25T01:02:02.984Z,99261.29
2018-03-25T01:03:08.715Z,99264.76
2018-03-25T01:04:14.450Z,99258.75
2018-03-25T01:05:20.205Z,99257.48
2018-03-25T01:06:26.007Z,99260.95
2018-03-25T01:07:31.761Z,99262.27
2018-03-25T01:08:37.469Z,99259.77
2018-03-25T01:09:43.955Z,99260.64
2018-03-25T01:10:49.657Z,99254.61
2018-03-25T01:11:55.400Z,99256.78
2018-03-25T01:13:01.932Z,99259.00
2018-03-25T01:14:08.548Z,99255.14
2018-03-25T01:15:14.301Z,99255.88
2018-03-25T01:16:19.331Z,99255.09
2018-03-25T01:17:25.052Z,99257.23
2018-03-25T01:18:30.769Z,99254.64
2018-03-25T01:19:37.244Z,99251.66
2018-03-25T01:20:43.728Z,99251.67
2018-03-25T01:21:49.437Z,99255.66
2018-03-25T01:22:55.921Z,99254.25
2018-03-25T01:24:01.628Z,99255.88
2018-03-25T01:25:08.096Z,99257.84
2018-03-25T01:26:14.592Z,99255.34
2018-03-25T01:27:20.310Z,99255.92
2018-03-25T01:28:26.021Z,99256.41
2018-03-25T01:29:31.725Z,99255.35
2018-03-25T01:30:37.422Z,99256.79
2018-03-25T01:31:43.160Z,99253.46
2018-03-25T01:32:49.634Z,99256.95
2018-03-25T01:33:55.336Z,99252.62
2018-03-25T01:35:01.815Z,99261.21
2018-03-25T01:36:08.695Z,99251.16
2018-03-25T01:37:14.436Z,99255.41
2018-03-25T01:38:20.920Z,99255.78
2018-03-25T01:39:26.617Z,99250.09
2018-03-25T01:40:33.079Z,99252.20
2018-03-25T01:41:38.784Z,99256.06
2018-03-25T01:42:44.500Z,99253.81
2018-03-25T01:43:50.205Z,99255.92
2018-03-25T01:44:56.678Z,99255.91
2018-03-25T01:46:02.384Z,99248.63
2018-03-25T01:47:08.091Z,99247.19
2018-03-25T01:48:13.822Z,99252.39
2018-03-25T01:49:19.520Z,99243.62
2018-03-25T01:50:26.006Z,99248.27
2018-03-25T01:51:31.717Z,99243.09
2018-03-25T01:52:38.181Z,99251.20
2018-03-25T01:53:43.910Z,99248.59
2018-03-25T01:54:50.389Z,99245.13
2018-03-25T01:55:56.136Z,99253.30
2018-03-25T01:57:01.847Z,99251.10
2018-03-25T01:58:07.535Z,99248.95
2018-03-25T01:59:13.267Z,99253.75
2018-03-25T02:00:18.999Z,99247.85
2018-03-25T02:01:24.704Z,99251.74
2018-03-25T02:02:31.179Z,99247.53
2018-03-25T02:03:36.891Z,99253.67
2018-03-25T02:04:42.619Z,99250.45
2018-03-25T02:05:48.372Z,99253.63
2018-03-25T02:06:55.047Z,99251.99
2018-03-25T02:08:01.635Z,99251.09
2018-03-25T02:09:08.368Z,99248.50
2018-03-25T02:10:14.102Z,99250.30
2018-03-25T02:11:20.077Z,99247.69
2018-03-25T02:12:26.548Z,99250.86
2018-03-25T02:13:32.281Z,99248.74
2018-03-25T02:14:38.133Z,99245.86
2018-03-25T02:15:43.861Z,99251.06
2018-03-25T02:16:50.500Z,99248.66
2018-03-25T02:17:56.783Z,99250.88
2018-03-25T02:19:02.535Z,99243.66
2018-03-25T02:20:08.241Z,99239.67
2018-03-25T02:21:13.966Z,99241.73
2018-03-25T02:22:19.676Z,99242.11
2018-03-25T02:23:25.401Z,99242.56
2018-03-25T02:24:31.097Z,99248.11
2018-03-25T02:25:36.797Z,99238.14
2018-03-25T02:26:42.538Z,99245.94
2018-03-25T02:27:48.236Z,99242.59
2018-03-25T02:28:54.712Z,99248.27
2018-03-25T02:30:00.422Z,99242.74
2018-03-25T02:31:06.568Z,99243.98
2018-03-25T02:32:13.626Z,99247.52
2018-03-25T02:33:19.333Z,99246.13
2018-03-25T02:34:25.045Z,99241.13
2018-03-25T02:35:31.520Z,99249.30
2018-03-25T02:36:37.219Z,99241.05
2018-03-25T02:37:42.952Z,99243.24
2018-03-25T02:38:48.655Z,99240.67
2018-03-25T02:39:54.367Z,99239.75
2018-03-25T02:41:00.896Z,99246.70
2018-03-25T02:42:06.597Z,99247.05
2018-03-25T02:43:12.337Z,99249.11
2018-03-25T02:44:18.040Z,99248.98
2018-03-25T02:45:24.577Z,99250.50
2018-03-25T02:46:30.444Z,99250.95
2018-03-25T02:47:36.904Z,99251.69
2018-03-25T02:48:43.685Z,99252.96
2018-03-25T02:49:49.397Z,99252.94
2018-03-25T02:50:55.884Z,99248.58
2018-03-25T02:52:01.627Z,99252.89
2018-03-25T02:53:07.353Z,99248.16
2018-03-25T02:54:13.093Z,99252.09
2018-03-25T02:55:19.566Z,99252.54
2018-03-25T02:56:26.037Z,99254.26
2018-03-25T02:57:31.736Z,99251.83
2018-03-25T02:58:38.214Z,99260.02
2018-03-25T02:59:43.942Z,99254.06
2018-03-25T03:00:49.666Z,99256.73
2018-03-25T03:01:56.898Z,99255.02
2018-03-25T03:03:02.607Z,99250.73
2018-03-25T03:04:09.084Z,99255.84
2018-03-25T03:05:14.814Z,99256.61
2018-03-25T03:06:20.516Z,99253.50
2018-03-25T03:07:26.230Z,99254.66
2018-03-25T03:08:32.127Z,99251.17
2018-03-25T03:09:38.608Z,99252.02
2018-03-25T03:10:44.321Z,99254.10
2018-03-25T03:11:50.807Z,99254.97
2018-03-25T03:12:56.721Z,99251.67
2018-03-25T03:14:03.392Z,99256.88
2018-03-25T03:15:09.111Z,99260.23
2018-03-25T03:16:14.836Z,99256.24
2018-03-25T03:17:20.576Z,99258.38
2018-03-25T03:18:26.301Z,99267.00
2018-03-25T03:19:32.000Z,99263.09
2018-03-25T03:20:38.478Z,99260.11
2018-03-25T03:21:44.210Z,99258.38
2018-03-25T03:22:49.936Z,99264.84
2018-03-25T03:23:56.582Z,99262.72
2018-03-25T03:25:02.294Z,99260.16
2018-03-25T03:26:08.014Z,99267.53
2018-03-25T03:27:13.744Z,99265.81
2018-03-25T03:28:19.472Z,99267.92
2018-03-25T03:29:25.182Z,99264.95
2018-03-25T03:30:31.094Z,99275.22
2018-03-25T03:31:36.800Z,99267.56
2018-03-25T03:32:42.516Z,99268.50
2018-03-25T03:33:49.001Z,99273.49
2018-03-25T03:34:54.717Z,99270.58
2018-03-25T03:36:01.186Z,99271.38
2018-03-25T03:37:07.657Z,99269.69
2018-03-25T03:38:13.393Z,99271.50
2018-03-25T03:39:19.100Z,99269.44
2018-03-25T03:40:24.869Z,99271.16
2018-03-25T03:41:31.340Z,99272.38
2018-03-25T03:42:37.045Z,99271.01
2018-03-25T03:43:42.796Z,99274.05
2018-03-25T03:44:49.335Z,99274.05
2018-03-25T03:45:55.040Z,99270.19
2018-03-25T03:47:00.749Z,99265.56
2018-03-25T03:48:07.323Z,99266.85
2018-03-25T03:49:13.050Z,99266.90
2018-03-25T03:50:19.533Z,99268.67
2018-03-25T03:51:25.232Z,99268.67
2018-03-25T03:52:30.932Z,99262.72
2018-03-25T03:53:36.635Z,99264.44
2018-03-25T03:54:42.364Z,99270.49
2018-03-25T03:55:48.854Z,99263.59
2018-03-25T03:56:54.563Z,99267.88
2018-03-25T03:58:01.065Z,99272.48
2018-03-25T03:59:06.780Z,99266.75
2018-03-25T04:00:13.260Z,99269.71
2018-03-25T04:01:18.965Z,99264.06
2018-03-25T04:02:25.438Z,99271.38
2018-03-25T04:03:31.148Z,99272.20
2018-03-25T04:04:36.867Z,99272.62
2018-03-25T04:05:42.596Z,99276.03
2018-03-25T04:06:48.458Z,99272.57
2018-03-25T04:07:54.176Z,99277.30
2018-03-25T04:08:59.921Z,99278.58
2018-03-25T04:10:05.629Z,99275.14
2018-03-25T04:11:11.358Z,99275.16
2018-03-25T04:12:17.853Z,99278.20
2018-03-25T04:13:23.560Z,99276.03
2018-03-25T04:14:30.100Z,99280.36
2018-03-25T04:15:35.876Z,99283.83
2018-03-25T04:16:41.613Z,99281.23
2018-03-25T04:17:47.317Z,99282.55
2018-03-25T04:18:53.466Z,99283.42
2018-03-25T04:19:59.172Z,99285.63
2018-03-25T04:21:04.687Z,99281.73
2018-03-25T04:22:10.408Z,99284.33
2018-03-25T04:23:16.125Z,99283.94
2018-03-25T04:24:21.826Z,99285.67
2018-03-25T04:25:27.540Z,99287.02
2018-03-25T04:26:33.256Z,99291.03
2018-03-25T04:27:38.975Z,99283.78
2018-03-25T04:28:44.677Z,99283.80
2018-03-25T04:29:50.380Z,99287.77
2018-03-25T04:30:56.856Z,99283.86
2018-03-25T04:32:02.569Z,99288.11
2018-03-25T04:33:08.293Z,99288.98
2018-03-25T04:34:14.005Z,99290.70
2018-03-25T04:35:19.723Z,99285.95
2018-03-25T04:36:25.458Z,99286.90
2018-03-25T04:37:31.152Z,99287.39
2018-03-25T04:38:36.901Z,99283.13
2018-03-25T04:39:42.604Z,99286.70
2018-03-25T04:40:48.300Z,99287.25
2018-03-25T04:41:54.822Z,99288.55
2018-03-25T04:43:00.518Z,99289.44
2018-03-25T04:44:07.004Z,99284.31
2018-03-25T04:45:12.707Z,99286.92
2018-03-25T04:46:19.188Z,99287.77
2018-03-25T04:47:24.886Z,99283.91
2018-03-25T04:48:30.433Z,99290.41
2018-03-25T04:49:36.934Z,99287.39
2018-03-25T04:50:42.857Z,99290.38
2018-03-25T04:51:49.423Z,99286.52
2018-03-25T04:52:56.051Z,99284.41
2018-03-25T04:54:01.823Z,99287.37
2018-03-25T04:55:07.562Z,99288.30
2018-03-25T04:56:13.256Z,99287.56
2018-03-25T04:57:18.971Z,99284.66
2018-03-25T04:58:24.676Z,99290.42
2018-03-25T04:59:30.420Z,99287.86
2018-03-25T05:00:36.150Z,99287.34
2018-03-25T05:01:42.615Z,99288.98
2018-03-25T05:02:48.321Z,99291.45
2018-03-25T05:03:54.054Z,99293.07
2018-03-25T05:04:59.757Z,99287.79
2018-03-25T05:06:05.158Z,99289.91
2018-03-25T05:07:10.868Z,99286.42
2018-03-25T05:08:16.577Z,99291.58
2018-03-25T05:09:22.297Z,99293.24
2018-03-25T05:10:28.044Z,99294.94
2018-03-25T05:11:33.783Z,99294.52
2018-03-25T05:12:39.523Z,99299.67
2018-03-25T05:13:45.234Z,99297.92
2018-03-25T05:14:50.928Z,99291.45
2018-03-25T05:15:56.650Z,99293.57
2018-03-25T05:17:02.364Z,99296.56
2018-03-25T05:18:08.841Z,99291.33
2018-03-25T05:19:14.570Z,99297.33
2018-03-25T05:20:21.044Z,99290.83
2018-03-25T05:21:26.789Z,99296.36
2018-03-25T05:22:32.509Z,99294.14
2018-03-25T05:23:39.281Z,99293.22
2018-03-25T05:24:44.989Z,99300.13
2018-03-25T05:25:51.456Z,99299.63
2018-03-25T05:26:57.950Z,99301.28
2018-03-25T05:28:03.704Z,99303.41
2018-03-25T05:29:10.350Z,99300.79
2018-03-25T05:30:16.061Z,99302.41
2018-03-25T05:31:22.601Z,99302.78
2018-03-25T05:32:28.297Z,99301.02
2018-03-25T05:33:34.037Z,99304.74
2018-03-25T05:34:39.755Z,99306.39
2018-03-25T05:35:45.453Z,99308.45
2018-03-25T05:36:51.159Z,99307.95
2018-03-25T05:37:56.870Z,99309.14
2018-03-25T05:39:02.610Z,99309.95
2018-03-25T05:40:09.097Z,99317.19
2018-03-25T05:41:15.554Z,99313.72
2018-03-25T05:42:21.252Z,99315.08
2018-03-25T05:43:26.981Z,99311.98
2018-03-25T05:44:32.740Z,99311.48
2018-03-25T05:45:38.458Z,99312.73
2018-03-25T05:46:44.159Z,99313.18
2018-03-25T05:47:49.902Z,99314.37
2018-03-25T05:48:55.601Z,99312.25
2018-03-25T05:50:01.334Z,99314.34
2018-03-25T05:51:07.024Z,99318.18
2018-03-25T05:52:12.749Z,99322.80
2018-03-25T05:53:18.460Z,99322.63
2018-03-25T05:54:24.160Z,99326.02
2018-03-25T05:55:29.904Z,99320.70
2018-03-25T05:56:35.420Z,99320.65
2018-03-25T05:57:41.150Z,99322.74
2018-03-25T05:58:46.851Z,99324.73
2018-03-25T05:59:52.643Z,99322.40
2018-03-25T06:00:58.398Z,99323.09
2018-03-25T06:02:04.108Z,99322.19
2018-03-25T06:03:10.592Z,99321.58
2018-03-25T06:04:16.402Z,99322.71
2018-03-25T06:05:22.118Z,99324.33
2018-03-25T06:06:27.840Z,99322.84
2018-03-25T06:07:33.440Z,99324.00
2018-03-25T06:08:39.141Z,99322.66
2018-03-25T06:09:45.614Z,99319.34
2018-03-25T06:10:51.334Z,99324.73
2018-03-25T06:11:57.072Z,99325.73
2018-03-25T06:13:02.792Z,99325.84
2018-03-25T06:14:08.518Z,99326.84
2018-03-25T06:15:14.215Z,99317.08
2018-03-25T06:16:20.698Z,99317.67
2018-03-25T06:17:26.430Z,99319.19
2018-03-25T06:18:32.133Z,99321.56
2018-03-25T06:19:37.836Z,99321.78
2018-03-25T06:20:43.548Z,99325.96
2018-03-25T06:21:50.020Z,99326.21
2018-03-25T06:22:55.750Z,99326.01
2018-03-25T06:24:02.220Z,99332.35
2018-03-25T06:25:07.971Z,99329.67
2018-03-25T06:26:14.621Z,99328.31
2018-03-25T06:27:20.321Z,99331.19
2018-03-25T06:28:26.812Z,99332.77
2018-03-25T06:29:32.202Z,99331.71
2018-03-25T06:30:37.912Z,99336.45
2018-03-25T06:31:43.416Z,99335.49
2018-03-25T06:32:49.897Z,99338.09
2018-03-25T06:33:55.679Z,99337.64
2018-03-25T06:35:01.378Z,99333.74
2018-03-25T06:36:07.090Z,99334.50
2018-03-25T06:37:13.559Z,99332.72
2018-03-25T06:38:19.368Z,99334.74
2018-03-25T06:39:25.874Z,99336.04
2018-03-25T06:40:31.580Z,99335.95
2018-03-25T06:41:37.286Z,99337.05
2018-03-25T06:42:43.095Z,99339.02
2018-03-25T06:43:48.807Z,99339.14
2018-03-25T06:44:54.537Z,99335.75
2018-03-25T06:46:00.249Z,99337.81
2018-03-25T06:47:05.633Z,99339.50
2018-03-25T06:48:12.109Z,99335.36
2018-03-25T06:49:18.159Z,99337.66
2018-03-25T06:50:24.509Z,99340.98
2018-03-25T06:51:30.333Z,99336.98
2018-03-25T06:52:36.815Z,99341.84
2018-03-25T06:53:42.525Z,99338.78
2018-03-25T06:54:49.000Z,99339.44
2018-03-25T06:55:55.497Z,99339.22
2018-03-25T06:57:01.200Z,99344.30
2018-03-25T06:58:07.678Z,99340.97
2018-03-25T06:59:13.380Z,99343.48
2018-03-25T07:00:19.857Z,99343.84
2018-03-25T07:01:25.593Z,99347.19
2018-03-25T07:02:32.064Z,99343.77
2018-03-25T07:03:37.780Z,99348.20
2018-03-25T07:04:43.478Z,99348.67
2018-03-25T07:05:49.190Z,99350.89
2018-03-25T07:06:54.925Z,99352.33
2018-03-25T07:08:00.643Z,99351.61
2018-03-25T07:09:06.829Z,99349.04
2018-03-25T07:10:12.545Z,99355.29
2018-03-25T07:11:19.017Z,99349.36
2018-03-25T07:12:24.764Z,99356.06
2018-03-25T07:13:30.473Z,99352.22
2018-03-25T07:14:37.161Z,99354.73
2018-03-25T07:15:42.872Z,99351.83
2018-03-25T07:16:49.369Z,99353.50
2018-03-25T07:17:55.112Z,99356.86
2018-03-25T07:19:00.816Z,99354.97
2018-03-25T07:20:07.292Z,99355.64
2018-03-25T07:21:13.572Z,99358.14
2018-03-25T07:22:19.294Z,99361.39
2018-03-25T07:23:25.785Z,99364.32
2018-03-25T07:24:31.493Z,99364.92
2018-03-25T07:25:37.208Z,99362.93
2018-03-25T07:26:43.685Z,99364.70
2018-03-25T07:27:49.478Z,99366.38
2018-03-25T07:28:55.200Z,99367.30
2018-03-25T07:30:00.900Z,99370.26
2018-03-25T07:31:07.483Z,99368.39
2018-03-25T07:32:13.192Z,99368.84
2018-03-25T07:33:19.665Z,99368.60
2018-03-25T07:34:25.396Z,99366.88
2018-03-25T07:35:31.978Z,99370.39
2018-03-25T07:36:37.675Z,99371.53
2018-03-25T07:37:43.420Z,99374.43
2018-03-25T07:38:49.312Z,99371.38
2018-03-25T07:39:55.059Z,99372.66
2018-03-25T07:41:00.438Z,99373.45
2018-03-25T07:42:05.939Z,99365.73
2018-03-25T07:43:11.646Z,99372.78
2018-03-25T07:44:18.293Z,99371.79
2018-03-25T07:45:24.827Z,99366.44
2018-03-25T07:46:30.545Z,99368.81
2018-03-25T07:47:36.269Z,99371.05
2018-03-25T07:48:41.993Z,99369.63
2018-03-25T07:49:47.739Z,99367.16
2018-03-25T07:50:53.481Z,99375.00
2018-03-25T07:51:59.214Z,99375.61
2018-03-25T07:53:05.705Z,99378.34
2018-03-25T07:54:11.439Z,99376.87
2018-03-25T07:55:17.172Z,99380.95
2018-03-25T07:56:22.925Z,99381.70
2018-03-25T07:57:28.655Z,99383.11
2018-03-25T07:58:34.384Z,99385.31
2018-03-25T07:59:40.107Z,99386.48
2018-03-25T08:00:46.584Z,99384.52
2018-03-25T08:01:52.342Z,99381.80
2018-03-25T08:02:58.158Z,99391.91
2018-03-25T08:04:04.647Z,99390.61
2018-03-25T08:05:10.420Z,99391.25
2018-03-25T08:06:16.907Z,99395.75
2018-03-25T08:07:23.475Z,99388.91
2018-03-25T08:08:29.955Z,99388.02
2018-03-25T08:09:35.694Z,99389.34
2018-03-25T08:10:41.422Z,99394.34
2018-03-25T08:11:47.182Z,99391.22
2018-03-25T08:12:52.966Z,99398.92
2018-03-25T08:13:58.742Z,99394.63
2018-03-25T08:15:04.889Z,99390.52
2018-03-25T08:16:10.294Z,99399.94
2018-03-25T08:17:16.288Z,99399.48
2018-03-25T08:18:22.485Z,99401.47
2018-03-25T08:19:29.002Z,99400.65
2018-03-25T08:20:34.728Z,99405.09
2018-03-25T08:21:40.450Z,99406.84
2018-03-25T08:22:46.937Z,99405.33
2018-03-25T08:23:52.688Z,99407.59
2018-03-25T08:24:58.419Z,99406.00
2018-03-25T08:26:04.157Z,99403.52
2018-03-25T08:27:09.868Z,99405.16
2018-03-25T08:28:15.618Z,99409.89
2018-03-25T08:29:21.362Z,99409.25
2018-03-25T08:30:28.087Z,99405.44
2018-03-25T08:31:33.851Z,99405.20
2018-03-25T08:32:39.567Z,99411.67
2018-03-25T08:33:45.285Z,99407.39
2018-03-25T08:34:51.771Z,99404.81
2018-03-25T08:35:57.489Z,99407.18
2018-03-25T08:37:03.280Z,99415.31
2018-03-25T08:38:09.784Z,99407.89
2018-03-25T08:39:15.580Z,99413.23
2018-03-25T08:40:22.145Z,99411.56
2018-03-25T08:41:28.761Z,99416.27
2018-03-25T08:42:34.479Z,99406.97
2018-03-25T08:43:40.204Z,99414.76
2018-03-25T08:44:46.686Z,99410.86
2018-03-25T08:45:52.441Z,99417.11
2018-03-25T08:46:58.509Z,99413.03
2018-03-25T08:48:04.331Z,99413.72
2018-03-25T08:49:10.166Z,99414.33
2018-03-25T08:50:15.891Z,99416.80
2018-03-25T08:51:21.734Z,99416.91
2018-03-25T08:52:26.943Z,99417.91
2018-03-25T08:53:33.425Z,99417.48
2018-03-25T08:54:39.227Z,99420.08
2018-03-25T08:55:45.716Z,99416.50
2018-03-25T08:56:51.475Z,99421.67
2018-03-25T08:57:57.017Z,99425.82
2018-03-25T08:59:03.199Z,99417.59
2018-03-25T09:00:10.698Z,99422.41
2018-03-25T09:01:17.470Z,99419.47
2018-03-25T09:02:24.133Z,99419.97
2018-03-25T09:03:30.772Z,99416.50
2018-03-25T09:04:36.501Z,99418.48
2018-03-25T09:05:42.231Z,99422.31
2018-03-25T09:06:48.049Z,99419.58
2018-03-25T09:07:53.985Z,99418.48
2018-03-25T09:08:59.933Z,99415.13
2018-03-25T09:10:05.800Z,99411.69
2018-03-25T09:11:11.673Z,99414.48
2018-03-25T09:12:17.398Z,99409.62
2018-03-25T09:13:23.333Z,99404.97
2018-03-25T09:14:29.098Z,99407.61
2018-03-25T09:15:39.266Z,99408.02
2018-03-25T09:16:45.249Z,99420.59
2018-03-25T09:17:51.319Z,99411.27
2018-03-25T09:18:57.993Z,99414.53
2018-03-25T09:20:03.944Z,99413.02
2018-03-25T09:21:09.677Z,99418.59
2018-03-25T09:22:15.733Z,99416.28
2018-03-25T09:23:21.471Z,99411.23
2018-03-25T09:24:28.010Z,99413.80
2018-03-25T09:25:33.740Z,99412.00
2018-03-25T09:26:39.454Z,99410.02
2018-03-25T09:27:46.095Z,99411.25
2018-03-25T09:28:53.311Z,99409.36
2018-03-25T09:29:59.061Z,99410.34
2018-03-25T09:31:04.924Z,99412.17
2018-03-25T09:32:10.646Z,99409.56
2018-03-25T09:33:16.362Z,99409.78
2018-03-25T09:34:22.144Z,99409.66
2018-03-25T09:35:27.897Z,99403.81
2018-03-25T09:36:33.631Z,99410.37
2018-03-25T09:37:39.372Z,99411.81
2018-03-25T09:38:45.165Z,99411.45
2018-03-25T09:39:51.654Z,99408.86
2018-03-25T09:40:57.385Z,99409.25
2018-03-25T09:42:03.122Z,99405.50
2018-03-25T09:43:08.846Z,99413.84
2018-03-25T09:44:15.344Z,99413.34
2018-03-25T09:45:21.090Z,99405.16
2018-03-25T09:46:26.849Z,99408.46
2018-03-25T09:47:32.561Z,99411.78
2018-03-25T09:48:38.421Z,99411.56
2018-03-25T09:49:44.167Z,99414.00
2018-03-25T09:50:49.949Z,99412.45
2018-03-25T09:51:58.262Z,99416.38
2018-03-25T09:53:04.842Z,99420.12
2018-03-25T09:54:10.572Z,99422.36
2018-03-25T09:55:17.459Z,99418.17
2018-03-25T09:56:23.157Z,99419.05
2018-03-25T09:57:28.929Z,99419.38
2018-03-25T09:58:35.760Z,99421.25
2018-03-25T09:59:42.101Z,99422.20
2018-03-25T10:00:50.071Z,99422.11
2018-03-25T10:02:02.164Z,99422.48
2018-03-25T10:03:15.649Z,99422.16
2018-03-25T10:04:22.227Z,99418.39
2018-03-25T10:05:28.017Z,99423.27
2018-03-25T10:06:33.749Z,99423.00
2018-03-25T10:07:40.668Z,99416.41
2018-03-25T10:08:46.634Z,99418.30
2018-03-25T10:09:52.465Z,99418.27
2018-03-25T10:10:58.187Z,99423.14
2018-03-25T10:12:05.028Z,99418.80
2018-03-25T10:13:10.945Z,99420.58
2018-03-25T10:14:16.706Z,99417.60
2018-03-25T10:15:22.585Z,99419.95
2018-03-25T10:16:29.250Z,99419.95
2018-03-25T10:17:35.789Z,99422.86
2018-03-25T10:18:42.049Z,99420.69
2018-03-25T10:19:48.027Z,99421.22
2018-03-25T10:20:53.865Z,99418.27
2018-03-25T10:21:59.653Z,99425.04
2018-03-25T10:23:05.597Z,99420.28
2018-03-25T10:24:11.353Z,99423.29
2018-03-25T10:25:17.342Z,99421.69
2018-03-25T10:26:23.882Z,99423.69
2018-03-25T10:27:30.632Z,99423.59
2018-03-25T10:28:36.506Z,99420.25
2018-03-25T10:29:42.554Z,99427.86
2018-03-25T10:30:48.102Z,99423.38
2018-03-25T10:31:53.885Z,99419.94
2018-03-25T10:32:59.920Z,99427.91
2018-03-25T10:34:05.746Z,99427.80
2018-03-25T10:35:11.575Z,99426.88
2018-03-25T10:36:19.936Z,99424.59
2018-03-25T10:37:25.966Z,99428.52
2018-03-25T10:38:31.723Z,99435.26
2018-03-25T10:39:37.244Z,99427.38
2018-03-25T10:40:42.994Z,99434.22
2018-03-25T10:41:48.734Z,99433.56
2018-03-25T10:42:54.557Z,99428.60
2018-03-25T10:44:00.310Z,99433.76
2018-03-25T10:45:06.121Z,99435.58
2018-03-25T10:46:12.897Z,99433.55
2018-03-25T10:47:18.673Z,99426.51
2018-03-25T10:48:24.481Z,99429.80
2018-03-25T10:49:30.718Z,99439.42
2018-03-25T10:50:36.710Z,99436.02
2018-03-25T10:51:42.502Z,99434.78
2018-03-25T10:52:49.083Z,99438.84
2018-03-25T10:53:55.703Z,99446.73
2018-03-25T10:55:01.670Z,99440.77
2018-03-25T10:56:07.693Z,99437.81
2018-03-25T10:57:13.982Z,99439.52
2018-03-25T10:58:19.920Z,99443.98
2018-03-25T10:59:26.017Z,99436.16
2018-03-25T11:00:33.145Z,99431.43
2018-03-25T11:01:39.321Z,99435.55
2018-03-25T11:02:45.858Z,99430.30
2018-03-25T11:03:51.748Z,99432.55
2018-03-25T11:04:58.454Z,99430.09
2018-03-25T11:06:04.407Z,99431.44
2018-03-25T11:07:10.864Z,99433.94
2018-03-25T11:08:17.035Z,99426.05
2018-03-25T11:09:23.089Z,99432.53
2018-03-25T11:10:29.419Z,99437.91
2018-03-25T11:11:35.570Z,99434.97
2018-03-25T11:12:41.504Z,99439.64
2018-03-25T11:13:47.464Z,99438.55
2018-03-25T11:14:54.454Z,99435.52
2018-03-25T11:16:00.583Z,99435.50
2018-03-25T11:17:06.792Z,99444.60
2018-03-25T11:18:12.941Z,99437.84
2018-03-25T11:19:20.111Z,99444.55
2018-03-25T11:20:27.151Z,99439.30
2018-03-25T11:21:34.012Z,99440.12
2018-03-25T11:22:40.047Z,99438.31
2018-03-25T11:23:46.167Z,99445.20
2018-03-25T11:24:53.029Z,99443.44
2018-03-25T11:26:00.088Z,99446.29
2018-03-25T11:27:06.100Z,99445.72
2018-03-25T11:28:12.233Z,99442.20
2018-03-25T11:29:19.119Z,99444.78
2018-03-25T11:30:25.106Z,99442.73
2018-03-25T11:31:32.403Z,99443.45
2018-03-25T11:32:38.577Z,99439.80
2018-03-25T11:33:44.627Z,99435.69
2018-03-25T11:34:50.681Z,99439.56
2018-03-25T11:35:57.850Z,99440.25
2018-03-25T11:37:03.898Z,99441.91
2018-03-25T11:38:10.775Z,99440.02
2018-03-25T11:39:16.815Z,99446.30
2018-03-25T11:40:23.885Z,99441.48
2018-03-25T11:41:31.205Z,99441.68
2018-03-25T11:42:37.227Z,99443.84
2018-03-25T11:43:43.974Z,99443.55
2018-03-25T11:44:49.895Z,99439.80
2018-03-25T11:45:56.770Z,99438.81
2018-03-25T11:47:02.939Z,99444.82
2018-03-25T11:48:08.991Z,99439.17
2018-03-25T11:49:15.880Z,99443.75
2018-03-25T11:50:21.916Z,99442.39
2018-03-25T11:51:27.948Z,99438.77
2018-03-25T11:52:33.897Z,99443.55
2018-03-25T11:53:40.048Z,99439.28
2018-03-25T11:54:46.056Z,99438.23
2018-03-25T11:55:52.967Z,99437.75
2018-03-25T11:56:58.998Z,99438.11
2018-03-25T11:58:05.107Z,99439.06
2018-03-25T11:59:11.732Z,99441.19
2018-03-25T12:00:17.771Z,99443.66
2018-03-25T12:01:23.910Z,99441.02
2018-03-25T12:02:30.689Z,99440.87
2018-03-25T12:03:36.724Z,99438.41
2018-03-25T12:04:42.461Z,99438.53
2018-03-25T12:05:49.015Z,99435.45
2018-03-25T12:06:55.744Z,99436.37
2018-03-25T12:08:01.653Z,99437.79
2018-03-25T12:09:07.494Z,99437.70
2018-03-25T12:10:13.397Z,99434.58
2018-03-25T12:11:19.325Z,99435.52
2018-03-25T12:12:25.429Z,99433.35
2018-03-25T12:13:31.207Z,99433.94
2018-03-25T12:14:38.219Z,99440.84
2018-03-25T12:15:44.803Z,99432.56
2018-03-25T12:16:50.594Z,99433.37
2018-03-25T12:17:56.695Z,99437.25
2018-03-25T12:19:02.500Z,99437.39
2018-03-25T12:20:08.485Z,99429.67
2018-03-25T12:21:14.534Z,99432.16
2018-03-25T12:22:21.391Z,99435.47
2018-03-25T12:23:27.463Z,99431.15
2018-03-25T12:24:33.395Z,99436.37
2018-03-25T12:25:39.496Z,99426.89
2018-03-25T12:26:46.003Z,99430.86
2018-03-25T12:27:51.865Z,99426.19
2018-03-25T12:28:58.579Z,99429.45
2018-03-25T12:30:04.512Z,99426.98
2018-03-25T12:31:10.415Z,99427.08
2018-03-25T12:32:16.514Z,99428.31
2018-03-25T12:33:22.600Z,99425.48
2018-03-25T12:34:31.680Z,99424.81
2018-03-25T12:35:38.441Z,99427.48
2018-03-25T12:36:45.123Z,99424.82
2018-03-25T12:37:51.796Z,99423.33
2018-03-25T12:38:57.583Z,99418.28
2018-03-25T12:40:03.307Z,99421.30
2018-03-25T12:41:09.090Z,99423.95
2018-03-25T12:42:14.974Z,99424.31
2018-03-25T12:43:21.153Z,99420.84
2018-03-25T12:44:27.433Z,99418.62
2018-03-25T12:45:33.848Z,99422.06
2018-03-25T12:46:39.593Z,99422.06
2018-03-25T12:47:45.210Z,99415.08
2018-03-25T12:48:51.244Z,99425.55
2018-03-25T12:49:57.943Z,99417.77
2018-03-25T12:51:03.900Z,99416.45
2018-03-25T12:52:09.826Z,99411.56
2018-03-25T12:53:16.208Z,99418.53
2018-03-25T12:54:22.144Z,99408.95
2018-03-25T12:55:27.941Z,99412.04